createdAt,value
2022-07-29T00:00:28.228Z,52.86
2022-07-29T00:03:14.625Z,52.88
2022-07-29T00:06:00.915Z,53.05
2022-07-29T00:08:46.378Z,53.29
2022-07-29T00:11:31.703Z,52.80
2022-07-29T00:14:17.345Z,53.07
2022-07-29T00:17:03.000Z,53.52
2022-07-29T00:19:48.234Z,53.17
2022-07-29T00:22:33.674Z,53.97
2022-07-29T00:25:19.025Z,53.81
2022-07-29T00:28:04.189Z,53.89
2022-07-29T00:30:49.244Z,54.00
2022-07-29T00:33:34.569Z,53.66
2022-07-29T00:36:19.968Z,53.43
2022-07-29T00:39:05.261Z,54.06
2022-07-29T00:41:51.371Z,55.68
2022-07-29T00:44:40.186Z,54.25
2022-07-29T00:47:25.317Z,54.03
2022-07-29T00:50:13.285Z,54.70
2022-07-29T00:52:59.159Z,55.39
2022-07-29T00:55:44.334Z,54.27
2022-07-29T00:58:29.726Z,54.08
2022-07-29T01:01:15.115Z,54.14
2022-07-29T01:04:00.569Z,55.47
2022-07-29T01:06:45.736Z,54.71
2022-07-29T01:09:34.334Z,54.19
2022-07-29T01:12:31.979Z,54.10
2022-07-29T01:15:17.981Z,54.14
2022-07-29T01:18:31.133Z,54.22
2022-07-29T01:21:47.867Z,54.79
2022-07-29T01:24:48.741Z,54.98
2022-07-29T01:27:49.261Z,55.40
2022-07-29T01:30:39.000Z,54.50
2022-07-29T01:33:26.041Z,56.48
2022-07-29T01:36:15.452Z,55.27
2022-07-29T01:39:19.409Z,54.92
2022-07-29T01:42:23.360Z,55.15
2022-07-29T01:45:25.084Z,56.10
2022-07-29T01:48:19.051Z,55.49
2022-07-29T01:51:30.029Z,56.08
2022-07-29T01:54:57.530Z,56.40
2022-07-29T01:57:46.373Z,56.15
2022-07-29T02:00:32.991Z,55.27
2022-07-29T02:03:19.429Z,55.66
2022-07-29T02:06:06.543Z,55.50
2022-07-29T02:08:54.573Z,55.85
2022-07-29T02:11:43.524Z,55.89
2022-07-29T02:14:31.743Z,56.79
2022-07-29T02:17:53.082Z,56.21
2022-07-29T02:20:40.043Z,56.11
2022-07-29T02:23:26.353Z,56.23
2022-07-29T02:26:12.120Z,56.08
2022-07-29T02:29:00.944Z,56.30
2022-07-29T02:31:47.262Z,57.19
2022-07-29T02:34:35.687Z,58.46
2022-07-29T02:37:22.320Z,57.21
2022-07-29T02:40:12.257Z,58.88
2022-07-29T02:42:57.561Z,57.78
2022-07-29T02:45:43.624Z,56.76
2022-07-29T02:48:42.070Z,58.14
2022-07-29T02:51:43.408Z,58.43
2022-07-29T02:55:07.667Z,61.36
2022-07-29T02:58:06.627Z,62.91
2022-07-29T03:00:53.838Z,63.39
2022-07-29T03:03:40.525Z,63.56
2022-07-29T03:06:38.604Z,63.78
2022-07-29T03:09:24.949Z,62.97
2022-07-29T03:12:11.230Z,62.36
2022-07-29T03:14:57.763Z,62.27
2022-07-29T03:17:44.043Z,61.63
2022-07-29T03:20:29.498Z,61.64
2022-07-29T03:23:19.945Z,60.78
2022-07-29T03:26:05.265Z,60.98
2022-07-29T03:28:50.331Z,60.82
2022-07-29T03:31:36.373Z,61.31
2022-07-29T03:34:23.504Z,61.42
2022-07-29T03:37:08.565Z,60.48
2022-07-29T03:39:57.277Z,60.05
2022-07-29T03:42:44.441Z,60.21
2022-07-29T03:45:31.613Z,60.43
2022-07-29T03:48:20.419Z,60.19
2022-07-29T03:51:05.527Z,60.81
2022-07-29T03:53:53.014Z,63.11
2022-07-29T03:56:41.463Z,61.94
2022-07-29T03:59:28.201Z,60.52
2022-07-29T04:02:21.601Z,60.48
2022-07-29T04:05:13.554Z,60.84
2022-07-29T04:07:58.952Z,61.21
2022-07-29T04:10:44.325Z,61.94
2022-07-29T04:13:29.696Z,62.23
2022-07-29T04:16:15.116Z,63.52
2022-07-29T04:19:00.388Z,65.98
2022-07-29T04:21:45.680Z,67.77
2022-07-29T04:24:31.280Z,63.47
2022-07-29T04:27:16.271Z,62.25
2022-07-29T04:30:01.769Z,61.60
2022-07-29T04:32:47.148Z,63.68
2022-07-29T04:35:38.366Z,65.84
2022-07-29T04:38:23.986Z,63.05
2022-07-29T04:41:09.599Z,63.39
2022-07-29T04:43:56.149Z,64.50
2022-07-29T04:46:42.663Z,65.66
2022-07-29T04:49:28.192Z,63.06
2022-07-29T04:52:13.484Z,63.89
2022-07-29T04:54:58.385Z,63.35
2022-07-29T04:57:43.754Z,63.24
2022-07-29T05:00:33.566Z,62.04
2022-07-29T05:03:19.233Z,62.04
2022-07-29T05:06:04.405Z,61.65
2022-07-29T05:08:49.814Z,62.18
2022-07-29T05:11:34.750Z,61.22
2022-07-29T05:14:20.604Z,61.41
2022-07-29T05:17:15.296Z,61.74
2022-07-29T05:20:00.192Z,62.32
2022-07-29T05:22:45.413Z,63.05
2022-07-29T05:25:43.123Z,63.23
2022-07-29T05:28:29.746Z,62.41
2022-07-29T05:31:15.046Z,62.12
2022-07-29T05:34:01.037Z,63.11
2022-07-29T05:36:46.602Z,62.61
2022-07-29T05:39:47.032Z,62.96
2022-07-29T05:42:34.864Z,62.56
2022-07-29T05:45:19.926Z,63.40
2022-07-29T05:48:04.883Z,65.97
2022-07-29T05:50:50.143Z,65.58
2022-07-29T05:53:35.593Z,67.75
2022-07-29T05:56:21.050Z,68.35
2022-07-29T05:59:06.328Z,65.66
2022-07-29T06:02:03.943Z,68.78
2022-07-29T06:04:49.452Z,66.59
2022-07-29T06:07:34.622Z,65.54
2022-07-29T06:10:23.846Z,64.22
2022-07-29T06:13:11.590Z,63.98
2022-07-29T06:15:57.160Z,65.78
2022-07-29T06:18:42.217Z,65.60
2022-07-29T06:21:27.054Z,66.92
2022-07-29T06:24:14.362Z,63.51
2022-07-29T06:26:59.658Z,62.69
2022-07-29T06:29:45.039Z,65.54
2022-07-29T06:32:31.840Z,69.69
2022-07-29T06:35:39.413Z,68.71
2022-07-29T06:38:30.668Z,69.39
2022-07-29T06:41:17.172Z,70.34
2022-07-29T06:44:02.625Z,69.40
2022-07-29T06:46:47.691Z,67.71
2022-07-29T06:49:32.582Z,66.75
2022-07-29T06:52:17.870Z,64.26
2022-07-29T06:55:03.380Z,64.42
2022-07-29T06:57:50.580Z,62.92
2022-07-29T07:00:36.513Z,62.50
2022-07-29T07:03:21.399Z,62.69
2022-07-29T07:06:07.216Z,63.18
2022-07-29T07:08:54.288Z,61.59
2022-07-29T07:11:39.445Z,61.32
2022-07-29T07:14:24.214Z,61.55
2022-07-29T07:17:27.201Z,61.53
2022-07-29T07:20:13.294Z,60.15
2022-07-29T07:22:58.461Z,61.15
2022-07-29T07:25:44.227Z,58.60
2022-07-29T07:28:29.698Z,60.95
2022-07-29T07:31:15.250Z,60.38
2022-07-29T07:34:00.546Z,62.94
2022-07-29T07:36:45.892Z,59.42
2022-07-29T07:39:31.973Z,58.91
2022-07-29T07:42:17.225Z,62.07
2022-07-29T07:45:13.398Z,59.64
2022-07-29T07:48:01.595Z,60.81
2022-07-29T07:50:47.106Z,60.54
2022-07-29T07:53:32.551Z,58.71
2022-07-29T07:56:17.956Z,58.28
2022-07-29T07:59:03.443Z,58.35
2022-07-29T08:01:55.550Z,56.90
2022-07-29T08:04:41.689Z,58.34
2022-07-29T08:07:26.980Z,56.25
2022-07-29T08:10:12.697Z,53.65
2022-07-29T08:12:58.121Z,50.87
2022-07-29T08:15:43.532Z,48.69
2022-07-29T08:18:31.003Z,47.07
2022-07-29T08:21:16.682Z,48.11
2022-07-29T08:24:05.318Z,45.31
2022-07-29T08:26:52.746Z,45.22
2022-07-29T08:29:40.047Z,45.50
2022-07-29T08:32:52.645Z,43.50
2022-07-29T08:35:36.992Z,43.15
2022-07-29T08:38:22.080Z,42.16
2022-07-29T08:41:07.253Z,41.77
2022-07-29T08:43:52.844Z,40.77
2022-07-29T08:46:39.448Z,42.31
2022-07-29T08:49:25.174Z,41.40
2022-07-29T08:52:13.572Z,39.75
2022-07-29T08:54:59.698Z,40.84
2022-07-29T08:57:54.188Z,39.88
2022-07-29T09:00:43.215Z,38.73
2022-07-29T09:03:36.759Z,38.17
2022-07-29T09:06:22.740Z,38.12
2022-07-29T09:09:08.604Z,41.55
2022-07-29T09:11:53.979Z,39.05
2022-07-29T09:14:39.936Z,36.63
2022-07-29T09:18:00.860Z,38.46
2022-07-29T09:20:53.089Z,36.86
2022-07-29T09:23:38.085Z,37.15
2022-07-29T09:26:29.497Z,36.45
2022-07-29T09:29:16.095Z,35.71
2022-07-29T09:32:01.457Z,37.23
2022-07-29T09:34:46.708Z,37.66
2022-07-29T09:37:31.717Z,35.93
2022-07-29T09:40:26.137Z,36.93
2022-07-29T09:43:13.410Z,39.01
2022-07-29T09:46:12.304Z,38.77
2022-07-29T09:49:12.278Z,39.22
2022-07-29T09:52:08.629Z,37.40
2022-07-29T09:54:53.693Z,37.84
2022-07-29T09:57:39.150Z,35.30
2022-07-29T10:00:24.579Z,36.04
2022-07-29T10:03:10.048Z,35.70
2022-07-29T10:06:24.812Z,37.43
2022-07-29T10:09:11.093Z,38.47
2022-07-29T10:12:10.209Z,37.93
2022-07-29T10:14:55.703Z,37.60
2022-07-29T10:17:42.047Z,38.23
2022-07-29T10:20:28.796Z,37.86
2022-07-29T10:23:13.471Z,37.70
2022-07-29T10:25:58.940Z,38.18
2022-07-29T10:28:44.825Z,39.66
2022-07-29T10:31:43.095Z,37.45
2022-07-29T10:34:55.769Z,36.99
2022-07-29T10:37:58.013Z,40.10
2022-07-29T10:41:11.739Z,38.85
2022-07-29T10:44:16.359Z,37.17
2022-07-29T10:47:03.077Z,38.29
2022-07-29T10:50:01.112Z,36.83
2022-07-29T10:52:57.166Z,37.19
2022-07-29T10:55:43.155Z,38.60
2022-07-29T10:58:28.838Z,36.15
2022-07-29T11:04:45.019Z,35.52
2022-07-29T11:07:45.836Z,36.75
2022-07-29T11:10:31.948Z,36.77
2022-07-29T11:13:57.533Z,39.60
2022-07-29T11:17:08.485Z,40.01
2022-07-29T11:20:32.442Z,39.02
2022-07-29T11:23:34.045Z,39.65
2022-07-29T11:26:23.238Z,37.63
2022-07-29T11:29:23.058Z,38.31
2022-07-29T11:33:06.904Z,41.20
2022-07-29T11:36:16.804Z,38.17
2022-07-29T11:39:36.855Z,39.49
2022-07-29T11:42:32.642Z,37.79
2022-07-29T11:48:56.992Z,40.39
2022-07-29T11:54:57.258Z,40.44
2022-07-29T11:58:04.149Z,39.83
2022-07-29T12:01:05.430Z,38.24
2022-07-29T12:04:03.812Z,39.39
2022-07-29T12:06:52.455Z,36.65
2022-07-29T12:09:40.247Z,35.52
2022-07-29T12:12:27.433Z,36.13
2022-07-29T12:15:13.406Z,34.89
2022-07-29T12:18:03.574Z,36.16
2022-07-29T12:20:50.079Z,36.05
2022-07-29T12:23:35.756Z,38.89
2022-07-29T12:26:26.966Z,38.32
2022-07-29T12:29:20.359Z,38.74
2022-07-29T12:32:20.661Z,36.79
2022-07-29T12:35:10.951Z,35.76
2022-07-29T12:37:56.442Z,35.53
2022-07-29T12:40:41.718Z,33.73
2022-07-29T12:43:27.553Z,33.21
2022-07-29T12:46:15.355Z,34.56
2022-07-29T12:49:00.771Z,36.94
2022-07-29T12:51:49.218Z,37.79
2022-07-29T12:54:34.530Z,37.51
2022-07-29T12:57:20.523Z,36.85
2022-07-29T13:00:12.145Z,38.78
2022-07-29T13:02:59.774Z,41.26
2022-07-29T13:05:49.451Z,43.51
2022-07-29T13:08:34.847Z,44.15
2022-07-29T13:11:40.838Z,45.39
2022-07-29T13:14:38.756Z,43.95
2022-07-29T13:17:24.212Z,44.29
2022-07-29T13:23:55.404Z,44.06
2022-07-29T13:26:41.208Z,48.54
2022-07-29T13:29:29.837Z,46.37
2022-07-29T13:35:31.792Z,46.82
2022-07-29T13:38:16.977Z,46.70
2022-07-29T13:41:02.196Z,46.84
2022-07-29T13:43:47.565Z,45.76
2022-07-29T13:46:35.116Z,45.91
2022-07-29T13:49:24.602Z,46.86
2022-07-29T13:55:29.914Z,47.61
2022-07-29T13:58:15.232Z,48.84
2022-07-29T14:01:01.232Z,45.82
2022-07-29T14:03:46.348Z,46.21
2022-07-29T14:06:31.301Z,46.87
2022-07-29T14:09:16.936Z,51.60
2022-07-29T14:12:02.496Z,48.59
2022-07-29T14:14:47.902Z,49.07
2022-07-29T14:17:33.240Z,48.61
2022-07-29T14:20:18.375Z,46.67
2022-07-29T14:23:03.611Z,48.34
2022-07-29T14:25:50.516Z,48.42
2022-07-29T14:28:40.176Z,48.34
2022-07-29T14:31:26.821Z,46.75
2022-07-29T14:34:12.193Z,51.49
2022-07-29T14:36:57.737Z,48.23
2022-07-29T14:39:43.537Z,46.59
2022-07-29T14:42:28.693Z,46.28
2022-07-29T14:45:13.549Z,51.47
2022-07-29T14:47:58.993Z,52.13
2022-07-29T14:50:44.028Z,51.64
2022-07-29T14:53:29.292Z,50.63
2022-07-29T14:56:35.633Z,49.93
2022-07-29T14:59:20.076Z,52.72
2022-07-29T15:02:05.420Z,49.79
2022-07-29T15:04:50.953Z,55.73
2022-07-29T15:07:36.334Z,55.26
2022-07-29T15:10:22.281Z,61.54
2022-07-29T15:13:10.218Z,56.28
2022-07-29T15:15:59.929Z,59.03
2022-07-29T15:18:45.389Z,53.94
2022-07-29T15:21:30.815Z,52.07
2022-07-29T15:24:17.758Z,55.73
2022-07-29T15:27:03.276Z,52.79
2022-07-29T15:29:48.675Z,53.42
2022-07-29T15:32:33.717Z,54.55
2022-07-29T15:35:19.506Z,51.96
2022-07-29T15:38:04.864Z,54.79
2022-07-29T15:40:49.991Z,54.43
2022-07-29T15:43:35.554Z,57.90
2022-07-29T15:46:21.271Z,55.59
2022-07-29T15:49:07.791Z,56.66
2022-07-29T15:51:56.929Z,53.19
2022-07-29T15:54:44.813Z,55.26
2022-07-29T15:57:29.824Z,56.09
2022-07-29T16:00:15.312Z,55.05
2022-07-29T16:03:00.439Z,56.04
2022-07-29T16:05:46.166Z,54.39
2022-07-29T16:08:31.222Z,53.81
2022-07-29T16:11:16.661Z,53.07
2022-07-29T16:14:02.218Z,54.18
2022-07-29T16:16:47.832Z,56.39
2022-07-29T16:19:32.714Z,55.98
2022-07-29T16:22:18.008Z,57.06
2022-07-29T16:25:03.390Z,56.11
2022-07-29T16:27:48.471Z,55.62
2022-07-29T16:30:34.867Z,55.67
2022-07-29T16:33:20.334Z,55.91
2022-07-29T16:36:05.988Z,55.80
2022-07-29T16:38:51.442Z,56.42
2022-07-29T16:41:36.639Z,55.89
2022-07-29T16:44:22.085Z,56.87
2022-07-29T16:47:10.513Z,56.47
2022-07-29T16:49:55.266Z,56.37
2022-07-29T16:52:41.001Z,56.01
2022-07-29T16:55:26.246Z,55.90
2022-07-29T16:58:11.599Z,55.38
2022-07-29T17:00:56.856Z,58.45
2022-07-29T17:03:42.153Z,60.31
2022-07-29T17:06:28.000Z,66.21
2022-07-29T17:09:15.208Z,71.85
2022-07-29T17:12:00.383Z,71.20
2022-07-29T17:14:45.881Z,74.74
2022-07-29T17:17:38.577Z,78.87
2022-07-29T17:20:24.971Z,76.85
2022-07-29T17:23:10.129Z,79.76
2022-07-29T17:25:55.399Z,81.93
2022-07-29T17:28:41.069Z,83.50
2022-07-29T17:31:27.483Z,82.04
2022-07-29T17:34:12.671Z,79.67
2022-07-29T17:36:58.275Z,82.58
2022-07-29T17:39:43.424Z,84.78
2022-07-29T17:42:28.769Z,85.43
2022-07-29T17:45:14.267Z,84.76
2022-07-29T17:47:59.702Z,84.62
2022-07-29T17:50:45.627Z,86.13
2022-07-29T17:53:31.072Z,88.00
2022-07-29T17:56:16.464Z,88.22
2022-07-29T17:59:01.752Z,88.19
2022-07-29T18:01:46.613Z,88.95
2022-07-29T18:04:31.943Z,89.09
2022-07-29T18:07:17.383Z,89.91
2022-07-29T18:10:02.830Z,91.55
2022-07-29T18:12:48.159Z,92.44
2022-07-29T18:15:33.586Z,93.40
2022-07-29T18:18:18.972Z,95.64
2022-07-29T18:21:05.276Z,95.16
2022-07-29T18:23:50.550Z,94.21
2022-07-29T18:26:35.646Z,92.77
2022-07-29T18:29:20.600Z,89.74
2022-07-29T18:32:06.200Z,89.39
2022-07-29T18:34:52.058Z,93.82
2022-07-29T18:38:01.346Z,93.00
2022-07-29T18:40:43.092Z,94.44
2022-07-29T18:43:28.184Z,94.58
2022-07-29T18:46:13.637Z,95.50
2022-07-29T18:48:59.294Z,93.41
2022-07-29T18:51:44.707Z,93.33
2022-07-29T18:54:30.037Z,93.76
2022-07-29T18:57:55.015Z,93.94
2022-07-29T19:00:20.543Z,93.92
2022-07-29T19:03:06.676Z,93.33
2022-07-29T19:05:52.085Z,93.46
2022-07-29T19:08:37.216Z,92.23
2022-07-29T19:11:23.018Z,93.84
2022-07-29T19:14:08.785Z,92.54
2022-07-29T19:16:54.293Z,91.97
2022-07-29T19:19:39.579Z,91.48
2022-07-29T19:22:25.064Z,92.00
2022-07-29T19:25:10.430Z,91.90
2022-07-29T19:27:55.978Z,93.84
2022-07-29T19:30:41.298Z,97.87
2022-07-29T19:33:26.714Z,98.97
2022-07-29T19:36:11.730Z,97.95
2022-07-29T19:38:57.220Z,95.65
2022-07-29T19:41:42.291Z,97.94
2022-07-29T19:44:27.666Z,99.56
2022-07-29T19:47:17.348Z,99.56
2022-07-29T19:50:02.981Z,100.00
2022-07-29T19:52:48.155Z,97.81
2022-07-29T19:55:33.294Z,97.56
2022-07-29T19:58:18.299Z,99.88
2022-07-29T20:01:10.544Z,100.00
2022-07-29T20:03:56.046Z,100.00
2022-07-29T20:06:41.448Z,100.00
2022-07-29T20:09:27.440Z,100.00
2022-07-29T20:12:12.889Z,100.00
2022-07-29T20:14:58.524Z,100.00
2022-07-29T20:17:43.720Z,100.00
2022-07-29T20:20:29.278Z,100.00
2022-07-29T20:23:14.336Z,100.00
2022-07-29T20:25:59.651Z,100.00
2022-07-29T20:28:48.931Z,100.00
2022-07-29T20:31:34.736Z,100.00
2022-07-29T20:34:19.853Z,100.00
2022-07-29T20:37:05.026Z,100.00
2022-07-29T20:39:50.457Z,100.00
2022-07-29T20:42:35.916Z,100.00
2022-07-29T20:45:22.014Z,100.00
2022-07-29T20:48:08.301Z,100.00
2022-07-29T20:50:53.538Z,100.00
2022-07-29T20:53:39.874Z,100.00
2022-07-29T20:56:25.312Z,100.00
2022-07-29T20:59:10.617Z,100.00
2022-07-29T21:01:56.173Z,100.00
2022-07-29T21:04:41.531Z,100.00
2022-07-29T21:07:26.883Z,100.00
2022-07-29T21:10:12.546Z,100.00
2022-07-29T21:12:57.646Z,100.00
2022-07-29T21:15:43.126Z,100.00
2022-07-29T21:18:28.458Z,100.00
2022-07-29T21:21:15.078Z,100.00
2022-07-29T21:24:00.242Z,100.00
2022-07-29T21:26:54.486Z,100.00
2022-07-29T21:29:50.329Z,100.00
2022-07-29T21:32:35.989Z,100.00
2022-07-29T21:36:02.136Z,100.00
2022-07-29T21:38:26.021Z,100.00
2022-07-29T21:41:10.927Z,100.00
2022-07-29T21:43:59.476Z,100.00
2022-07-29T21:46:46.651Z,100.00
2022-07-29T21:49:32.429Z,100.00
2022-07-29T21:52:18.112Z,100.00
2022-07-29T21:55:03.561Z,100.00
2022-07-29T21:57:49.014Z,100.00
2022-07-29T22:00:34.336Z,100.00
2022-07-29T22:03:19.518Z,100.00
2022-07-29T22:06:04.868Z,100.00
2022-07-29T22:08:50.369Z,100.00
2022-07-29T22:11:35.965Z,100.00
2022-07-29T22:14:21.497Z,100.00
2022-07-29T22:17:06.542Z,100.00
2022-07-29T22:19:52.758Z,100.00
2022-07-29T22:22:38.202Z,100.00
2022-07-29T22:25:23.220Z,100.00
2022-07-29T22:28:08.723Z,100.00
2022-07-29T22:30:54.254Z,100.00
2022-07-29T22:33:40.974Z,100.00
2022-07-29T22:36:26.581Z,100.00
2022-07-29T22:39:11.735Z,100.00
2022-07-29T22:42:00.861Z,100.00
2022-07-29T22:44:45.998Z,100.00
2022-07-29T22:47:46.450Z,100.00
2022-07-29T22:50:33.714Z,100.00
2022-07-29T22:53:18.786Z,100.00
2022-07-29T22:56:04.379Z,100.00
2022-07-29T22:58:49.878Z,100.00
2022-07-29T23:01:36.031Z,100.00
2022-07-29T23:04:23.344Z,100.00
2022-07-29T23:07:08.715Z,100.00
2022-07-29T23:09:54.109Z,100.00
2022-07-29T23:12:39.454Z,100.00
2022-07-29T23:15:24.863Z,100.00
2022-07-29T23:18:10.173Z,100.00
2022-07-29T23:20:55.189Z,100.00
2022-07-29T23:23:39.869Z,100.00
2022-07-29T23:26:25.174Z,100.00
2022-07-29T23:29:10.644Z,100.00
2022-07-29T23:31:55.606Z,100.00
2022-07-29T23:34:40.363Z,100.00
2022-07-29T23:37:26.879Z,100.00
2022-07-29T23:40:14.644Z,100.00
2022-07-29T23:43:00.150Z,100.00
2022-07-29T23:45:48.760Z,100.00
2022-07-29T23:48:34.102Z,100.00
2022-07-29T23:51:19.793Z,100.00
2022-07-29T23:54:05.215Z,100.00
2022-07-29T23:56:50.291Z,100.00
2022-07-29T23:59:35.510Z,100.00
